Time;durP1;ratioP1;P1;durP2;ratioP2;P2;SDS_P1;SDS_P2;PMS_P1;PMS_P2;Temp;Humidity;BMP_temperature;BMP_pressure;BME280_temperature;BME280_humidity;BME280_pressure;Samples;Min_cycle;Max_cycle;Signal;HPM_P1;HPM_P2
2023/08/23 00:02:02;;;;;;;;;52.75;43.75;;;;;26.43;44.75;99406.94;5111999;28;8843;-77
2023/08/23 00:04:34;;;;;;;;;51.50;43.00;;;;;26.45;45.24;99399.56;5093268;28;8902;-77
2023/08/23 00:07:03;;;;;;;;;50.75;43.00;;;;;26.48;44.99;99403.88;5111912;28;8832;-76
2023/08/23 00:09:34;;;;;;;;;54.25;44.00;;;;;26.47;45.27;99413.81;5093917;28;8866;-81
2023/08/23 00:12:03;;;;;;;;;50.25;43.00;;;;;26.46;44.86;99406.69;5112299;28;8913;-79
2023/08/23 00:14:32;;;;;;;;;49.00;42.00;;;;;26.45;45.35;99409.50;5092706;28;8843;-79
2023/08/23 00:17:00;;;;;;;;;52.75;44.00;;;;;26.44;45.31;99402.41;5091352;28;8854;-79
2023/08/23 00:19:30;;;;;;;;;52.00;42.75;;;;;26.42;44.80;99404.41;5091546;28;8849;-79
2023/08/23 00:21:58;;;;;;;;;51.75;43.00;;;;;26.41;44.80;99402.69;5091600;28;8857;-78
2023/08/23 00:24:27;;;;;;;;;53.75;44.25;;;;;26.43;44.92;99412.31;5092780;28;8845;-76
2023/08/23 00:26:57;;;;;;;;;49.75;42.25;;;;;26.44;45.17;99407.81;5099075;28;8989;-77
2023/08/23 00:29:26;;;;;;;;;53.75;44.25;;;;;26.37;45.52;99414.72;5092462;28;8880;-76
2023/08/23 00:31:55;;;;;;;;;52.00;42.00;;;;;26.35;45.22;99417.56;5090010;28;8942;-81
2023/08/23 00:34:24;;;;;;;;;51.25;42.75;;;;;26.32;45.23;99417.81;5073175;28;8854;-78
2023/08/23 00:36:53;;;;;;;;;48.50;40.25;;;;;26.17;45.68;99416.50;5074355;28;8838;-78
2023/08/23 00:39:22;;;;;;;;;47.00;40.00;;;;;26.19;45.80;99412.69;5078260;28;8961;-78
2023/08/23 00:41:50;;;;;;;;;48.25;41.00;;;;;26.19;46.21;99419.91;5073236;28;8857;-78
2023/08/23 00:44:20;;;;;;;;;47.25;39.75;;;;;26.19;45.71;99414.50;5039125;28;8829;-77
2023/08/23 00:46:49;;;;;;;;;49.75;41.00;;;;;26.14;45.72;99412.25;5073508;28;8857;-77
2023/08/23 00:49:22;;;;;;;;;48.75;41.75;;;;;26.11;45.39;99408.97;5091346;28;9089;-78
2023/08/23 00:51:52;;;;;;;;;48.75;41.25;;;;;26.07;45.23;99401.13;5090162;28;8952;-78
2023/08/23 00:54:22;;;;;;;;;48.25;40.50;;;;;26.06;45.19;99401.31;5072589;28;8833;-78
2023/08/23 00:56:51;;;;;;;;;46.25;39.50;;;;;26.07;45.60;99398.44;5038903;28;8958;-78
2023/08/23 00:59:22;;;;;;;;;49.50;42.00;;;;;26.09;45.59;99399.16;5072604;28;8842;-77
2023/08/23 01:01:50;;;;;;;;;46.50;40.00;;;;;26.06;45.68;99391.38;5072726;28;8968;-77
2023/08/23 01:04:22;;;;;;;;;50.50;42.50;;;;;26.05;45.60;99388.81;5089473;28;8854;-78
2023/08/23 01:06:59;;;;;;;;;46.75;39.00;;;;;26.07;45.04;99390.38;5072449;28;8888;-78
2023/08/23 01:09:49;;;;;;;;;45.25;37.75;;;;;26.14;44.86;99389.84;5082310;28;9502;-78
2023/08/23 01:12:26;;;;;;;;;49.25;40.00;;;;;26.06;44.90;99391.38;5092706;28;8836;-77
2023/08/23 01:15:05;;;;;;;;;47.25;40.00;;;;;26.06;44.50;99395.91;5110764;28;8940;-77
2023/08/23 01:17:36;;;;;;;;;47.75;40.25;;;;;25.98;44.69;99393.88;5110638;28;8982;-78
2023/08/23 01:20:07;;;;;;;;;49.00;41.25;;;;;25.99;44.33;99400.97;5092489;28;8840;-78
2023/08/23 01:22:41;;;;;;;;;47.00;39.00;;;;;26.00;44.79;99397.31;5108080;28;8894;-78
2023/08/23 01:25:14;;;;;;;;;41.50;36.00;;;;;25.95;44.97;99396.00;5040027;28;8854;-80
2023/08/23 01:27:43;;;;;;;;;48.25;40.50;;;;;25.90;44.81;99385.63;5071797;28;8861;-76
2023/08/23 01:30:29;;;;;;;;;46.00;39.00;;;;;25.78;44.47;99392.06;5072449;28;8952;-78
2023/08/23 01:33:07;;;;;;;;;46.75;38.25;;;;;25.75;44.24;99379.69;5074913;28;8846;-78
2023/08/23 01:35:45;;;;;;;;;45.00;38.25;;;;;25.70;44.34;99388.19;5074222;28;8873;-78
2023/08/23 01:38:17;;;;;;;;;42.00;36.00;;;;;25.62;45.11;99392.53;5090516;28;8845;-78
2023/08/23 01:40:49;;;;;;;;;47.50;39.25;;;;;25.56;44.98;99385.84;5088815;28;8862;-76
2023/08/23 01:43:18;;;;;;;;;42.00;36.50;;;;;25.61;45.47;99386.31;5088478;28;8980;-80
2023/08/23 01:45:47;;;;;;;;;45.50;38.25;;;;;25.53;44.83;99380.75;5090032;28;8865;-77
2023/08/23 01:48:16;;;;;;;;;36.50;33.00;;;;;25.60;44.33;99387.28;5077520;28;8869;-79
2023/08/23 01:50:45;;;;;;;;;38.00;34.25;;;;;25.66;44.05;99388.56;5091810;28;8843;-79
2023/08/23 01:53:13;;;;;;;;;48.00;40.00;;;;;25.71;45.56;99375.56;5110190;28;8948;-77
2023/08/23 01:55:42;;;;;;;;;40.00;35.00;;;;;25.80;45.10;99387.41;5108618;28;8874;-79
2023/08/23 01:58:13;;;;;;;;;50.50;40.75;;;;;25.82;44.93;99382.72;5091829;28;8863;-78
2023/08/23 02:00:47;;;;;;;;;44.00;38.25;;;;;25.86;45.18;99381.47;5109902;28;8828;-79
2023/08/23 02:03:16;;;;;;;;;43.75;37.50;;;;;25.76;43.99;99375.19;5091308;28;8843;-78
2023/08/23 02:05:45;;;;;;;;;44.00;38.00;;;;;25.54;44.26;99385.13;5074682;28;8855;-78
2023/08/23 02:08:15;;;;;;;;;45.25;38.50;;;;;25.62;44.77;99381.75;5091358;28;8839;-80
2023/08/23 02:10:44;;;;;;;;;39.00;35.00;;;;;25.62;44.74;99384.44;5058163;28;8922;-78
2023/08/23 02:13:14;;;;;;;;;43.75;38.00;;;;;25.57;44.29;99384.00;5109399;28;9680;-78
2023/08/23 02:15:44;;;;;;;;;47.00;40.25;;;;;25.61;45.09;99380.91;5091033;28;8859;-79
2023/08/23 02:18:13;;;;;;;;;45.25;39.00;;;;;25.65;45.56;99385.03;5067483;28;8842;-77
2023/08/23 02:20:45;;;;;;;;;48.25;41.25;;;;;25.56;46.26;99385.00;5067922;28;8850;-80
2023/08/23 02:23:14;;;;;;;;;49.75;41.25;;;;;25.50;46.75;99383.69;5033271;28;8855;-79
2023/08/23 02:25:43;;;;;;;;;49.75;41.75;;;;;25.49;47.45;99384.66;5067924;28;8865;-79
2023/08/23 02:28:14;;;;;;;;;50.25;42.75;;;;;25.54;47.40;99386.97;5068937;28;8862;-77
2023/08/23 02:30:43;;;;;;;;;50.00;42.75;;;;;25.53;47.57;99380.75;5037755;28;8925;-78
2023/08/23 02:33:12;;;;;;;;;48.00;40.75;;;;;25.50;47.56;99381.00;5068937;28;8842;-77
2023/08/23 02:35:43;;;;;;;;;47.75;40.50;;;;;25.48;47.64;99380.28;5067857;28;8830;-78
2023/08/23 02:38:13;;;;;;;;;46.25;39.00;;;;;25.40;45.94;99367.47;5068508;28;8873;-77
2023/08/23 02:40:43;;;;;;;;;46.25;39.75;;;;;25.38;45.73;99371.28;5067856;28;8880;-79
2023/08/23 02:43:12;;;;;;;;;45.25;38.75;;;;;25.36;46.28;99371.44;5067886;28;8834;-77
2023/08/23 02:45:43;;;;;;;;;47.00;39.25;;;;;25.41;46.06;99363.78;5076461;28;9000;-76
2023/08/23 02:48:13;;;;;;;;;48.00;40.50;;;;;25.40;46.00;99369.31;5069395;28;8877;-79
2023/08/23 02:50:44;;;;;;;;;46.75;39.75;;;;;25.37;45.12;99365.03;5067692;28;9693;-78
2023/08/23 02:53:12;;;;;;;;;44.75;38.00;;;;;25.17;45.83;99363.16;5067409;28;8858;-79
2023/08/23 02:55:42;;;;;;;;;43.50;36.00;;;;;25.12;45.46;99360.88;5066526;28;8847;-78
2023/08/23 02:58:11;;;;;;;;;45.00;37.75;;;;;25.07;45.45;99363.94;5049925;28;8873;-78
2023/08/23 03:00:42;;;;;;;;;45.75;39.00;;;;;25.11;45.38;99364.53;5068537;28;8889;-77
2023/08/23 03:03:11;;;;;;;;;34.50;30.25;;;;;25.18;45.60;99370.28;5068612;28;8842;-78
2023/08/23 03:05:40;;;;;;;;;45.75;38.50;;;;;25.20;45.26;99368.31;5068133;28;8846;-78
2023/08/23 03:08:09;;;;;;;;;45.00;38.00;;;;;25.21;45.36;99373.56;5068638;28;8842;-80
2023/08/23 03:10:39;;;;;;;;;50.50;42.25;;;;;25.20;45.23;99365.63;5068087;28;8846;-77
2023/08/23 03:13:09;;;;;;;;;49.00;41.25;;;;;25.27;45.66;99366.81;5068488;28;8929;-78
2023/08/23 03:15:38;;;;;;;;;46.25;39.00;;;;;25.29;46.46;99373.75;5068269;28;8862;-78
2023/08/23 03:18:08;;;;;;;;;46.75;39.50;;;;;25.10;46.62;99379.00;5088379;28;8842;-78
2023/08/23 03:20:38;;;;;;;;;46.50;38.75;;;;;24.86;46.61;99369.31;5090934;28;9600;-77
2023/08/23 03:23:07;;;;;;;;;45.00;38.00;;;;;24.89;46.55;99369.06;5077143;28;8858;-77
2023/08/23 03:25:36;;;;;;;;;46.50;39.75;;;;;24.95;47.04;99367.69;5098286;28;8861;-76
2023/08/23 03:28:05;;;;;;;;;46.75;39.75;;;;;24.88;46.48;99361.97;5076435;28;8872;-77
2023/08/23 03:30:34;;;;;;;;;50.25;38.75;;;;;24.79;46.36;99360.03;5074315;28;8834;-78
2023/08/23 03:33:02;;;;;;;;;47.50;40.50;;;;;24.60;46.92;99365.22;5057705;28;8934;-78
2023/08/23 03:35:35;;;;;;;;;46.00;38.75;;;;;24.60;46.90;99359.84;5074227;28;8840;-80
2023/08/23 03:38:05;;;;;;;;;49.00;40.50;;;;;24.57;47.88;99362.81;5074232;28;8859;-79
2023/08/23 03:40:37;;;;;;;;;47.50;40.00;;;;;24.74;47.42;99359.59;5092627;28;8910;-79
2023/08/23 03:43:07;;;;;;;;;47.75;40.25;;;;;24.70;47.98;99366.19;5080926;28;8852;-77
2023/08/23 03:45:35;;;;;;;;;45.50;39.00;;;;;24.72;48.14;99365.06;5094307;28;9637;-79
2023/08/23 03:48:05;;;;;;;;;44.50;38.00;;;;;24.70;47.75;99371.56;5112617;28;8859;-80
2023/08/23 03:50:37;;;;;;;;;48.50;40.75;;;;;24.67;47.90;99369.97;5077638;28;9572;-80
2023/08/23 03:53:05;;;;;;;;;47.00;39.25;;;;;24.73;47.93;99379.38;5094145;28;8866;-78
2023/08/23 03:55:36;;;;;;;;;52.00;43.00;;;;;24.22;50.74;99377.28;5112339;28;8870;-82
2023/08/23 03:58:06;;;;;;;;;49.75;42.00;;;;;24.20;50.86;99374.69;5060783;28;8871;-78
2023/08/23 04:00:36;;;;;;;;;48.50;41.25;;;;;24.37;50.66;99370.66;5094384;28;8828;-78
2023/08/23 04:03:05;;;;;;;;;50.25;41.50;;;;;24.49;50.14;99376.84;5094257;28;8859;-78
2023/08/23 04:05:41;;;;;;;;;52.75;43.75;;;;;24.44;50.77;99382.59;5094356;28;8850;-78
2023/08/23 04:08:10;;;;;;;;;52.25;43.00;;;;;23.90;52.50;99378.88;5068930;28;8875;-79
2023/08/23 04:10:39;;;;;;;;;49.00;40.00;;;;;24.01;51.90;99382.50;5068443;28;8882;-78
2023/08/23 04:13:07;;;;;;;;;51.75;43.50;;;;;24.16;51.88;99381.31;5068374;28;8867;-78
2023/08/23 04:15:36;;;;;;;;;50.25;42.00;;;;;24.30;51.42;99372.13;5052305;28;8882;-80
2023/08/23 04:18:05;;;;;;;;;52.25;43.00;;;;;23.82;52.76;99385.81;5035890;28;8883;-77
2023/08/23 04:20:35;;;;;;;;;52.75;43.75;;;;;24.13;51.98;99379.72;5054670;28;8960;-78
2023/08/23 04:23:05;;;;;;;;;49.00;41.75;;;;;24.28;51.34;99382.13;5053872;28;8847;-79
2023/08/23 04:25:34;;;;;;;;;52.50;44.00;;;;;24.17;52.09;99388.41;5020330;28;8945;-78
2023/08/23 04:28:03;;;;;;;;;53.25;44.00;;;;;24.35;51.32;99386.88;5051844;28;8891;-77
2023/08/23 04:30:32;;;;;;;;;51.25;42.25;;;;;24.45;51.02;99391.50;5051810;28;8947;-77
2023/08/23 04:33:02;;;;;;;;;46.00;39.00;;;;;24.58;50.37;99389.53;5045306;28;8870;-80
2023/08/23 04:35:31;;;;;;;;;45.50;39.00;;;;;24.65;49.87;99390.72;5048300;28;8966;-81
2023/08/23 04:38:00;;;;;;;;;50.50;40.75;;;;;24.76;50.18;99386.34;5031147;28;9008;-80
2023/08/23 04:40:31;;;;;;;;;59.00;48.75;;;;;24.85;49.59;99397.19;4999133;28;8846;-79
2023/08/23 04:43:02;;;;;;;;;69.00;57.00;;;;;24.92;49.70;99401.09;5014738;28;8897;-78
2023/08/23 04:45:32;;;;;;;;;50.75;41.00;;;;;24.96;49.00;99395.44;5046910;28;9102;-80
2023/08/23 04:48:01;;;;;;;;;49.00;41.50;;;;;25.05;48.43;99400.03;5079079;28;8891;-78
2023/08/23 04:50:34;;;;;;;;;51.00;41.75;;;;;25.16;48.29;99394.59;5093126;28;8940;-78
2023/08/23 04:53:02;;;;;;;;;48.75;40.75;;;;;25.28;48.54;99400.78;5111453;28;8859;-79
2023/08/23 04:55:35;;;;;;;;;50.75;41.75;;;;;25.33;48.26;99395.91;5076132;28;9553;-79
2023/08/23 04:58:04;;;;;;;;;49.00;40.25;;;;;25.45;47.82;99405.59;5042277;28;9094;-78
2023/08/23 05:00:33;;;;;;;;;49.75;42.00;;;;;25.56;47.45;99403.84;5076276;28;8863;-78
2023/08/23 05:03:02;;;;;;;;;47.50;40.50;;;;;25.65;47.25;99409.28;5092702;28;8855;-78
2023/08/23 05:05:32;;;;;;;;;53.00;43.50;;;;;25.71;46.99;99410.56;5094982;28;8902;-81
2023/08/23 05:08:01;;;;;;;;;53.25;44.50;;;;;25.79;47.14;99409.91;5110985;28;8867;-76
2023/08/23 05:10:30;;;;;;;;;59.75;47.50;;;;;25.75;47.11;99411.16;5092740;28;9632;-78
2023/08/23 05:13:01;;;;;;;;;54.00;45.00;;;;;25.55;47.81;99416.44;5047596;28;8968;-77
2023/08/23 05:15:32;;;;;;;;;50.00;41.00;;;;;25.80;47.42;99414.31;5031724;28;8923;-78
2023/08/23 05:18:01;;;;;;;;;57.75;46.75;;;;;25.90;46.96;99417.94;5050215;28;8939;-77
2023/08/23 05:20:31;;;;;;;;;53.00;44.50;;;;;25.83;46.82;99422.13;5031467;28;8870;-78
2023/08/23 05:22:59;;;;;;;;;52.00;43.50;;;;;25.75;47.28;99422.78;5030973;28;8862;-78
2023/08/23 05:25:29;;;;;;;;;48.75;41.75;;;;;25.82;47.22;99420.41;5013860;28;8846;-80
2023/08/23 05:27:58;;;;;;;;;53.00;43.75;;;;;25.90;47.26;99416.09;5047548;28;8874;-78
2023/08/23 05:30:30;;;;;;;;;49.00;42.00;;;;;26.16;47.16;99418.34;5047615;28;8874;-79
2023/08/23 05:32:59;;;;;;;;;48.75;41.00;;;;;26.30;46.48;99409.00;5030895;28;8977;-80
2023/08/23 05:35:30;;;;;;;;;51.00;42.50;;;;;26.18;46.86;99410.97;5014532;28;8842;-78
2023/08/23 05:37:58;;;;;;;;;50.25;42.50;;;;;26.04;47.54;99414.91;5046582;28;8878;-79
2023/08/23 05:40:28;;;;;;;;;49.25;41.25;;;;;25.97;47.36;99412.88;5046988;28;8877;-78
2023/08/23 05:42:57;;;;;;;;;49.75;40.50;;;;;25.89;48.11;99413.53;5047084;28;8986;-78
2023/08/23 05:45:26;;;;;;;;;52.00;44.00;;;;;26.05;47.62;99405.81;5073742;28;8860;-79
2023/08/23 05:47:57;;;;;;;;;50.75;43.25;;;;;26.36;46.65;99405.78;5074426;28;8867;-77
2023/08/23 05:50:27;;;;;;;;;47.00;39.75;;;;;26.57;46.16;99403.03;5107593;28;8860;-77
2023/08/23 05:52:55;;;;;;;;;54.00;44.50;;;;;26.58;45.72;99409.28;5106771;28;8889;-78
2023/08/23 05:55:24;;;;;;;;;50.00;40.25;;;;;26.59;45.77;99409.13;5090094;28;8844;-78
2023/08/23 05:57:53;;;;;;;;;49.50;40.75;;;;;26.52;46.32;99417.91;5107203;28;8938;-76
2023/08/23 06:00:22;;;;;;;;;56.50;44.50;;;;;26.65;45.80;99416.66;5106974;28;8840;-78
2023/08/23 06:02:51;;;;;;;;;50.25;42.25;;;;;26.83;45.41;99414.16;5107167;28;8863;-78
2023/08/23 06:05:22;;;;;;;;;52.00;43.25;;;;;27.12;45.29;99412.47;5107264;28;8902;-78
2023/08/23 06:07:50;;;;;;;;;53.50;44.50;;;;;27.13;44.89;99412.31;5107117;28;8840;-77
2023/08/23 06:10:19;;;;;;;;;53.50;44.50;;;;;26.83;45.61;99413.28;5040852;28;8839;-78
2023/08/23 06:12:48;;;;;;;;;49.50;40.75;;;;;26.57;46.48;99416.50;5022581;28;8866;-78
2023/08/23 06:15:18;;;;;;;;;49.00;41.25;;;;;26.54;46.56;99421.31;5089952;28;8853;-78
2023/08/23 06:17:49;;;;;;;;;53.25;44.75;;;;;26.24;47.66;99414.97;5089066;28;8881;-78
2023/08/23 06:20:19;;;;;;;;;54.50;44.50;;;;;26.40;47.68;99411.72;5089891;28;8834;-79
2023/08/23 06:22:49;;;;;;;;;49.75;42.25;;;;;26.25;47.67;99411.28;5089696;28;8923;-78
2023/08/23 06:25:18;;;;;;;;;49.50;42.00;;;;;26.41;47.13;99419.69;5089179;28;8834;-77
2023/08/23 06:27:50;;;;;;;;;52.50;44.00;;;;;26.57;47.18;99418.34;5089041;28;8846;-81
2023/08/23 06:30:20;;;;;;;;;51.25;43.25;;;;;26.47;47.39;99413.81;5089020;28;8870;-77
2023/08/23 06:32:49;;;;;;;;;50.50;42.25;;;;;26.62;47.10;99411.53;5066155;28;8968;-77
2023/08/23 06:35:20;;;;;;;;;50.00;42.25;;;;;26.86;46.73;99410.31;5088598;28;8826;-78
2023/08/23 06:37:50;;;;;;;;;56.00;46.00;;;;;27.04;46.39;99413.16;5088481;28;8858;-77
2023/08/23 06:40:20;;;;;;;;;46.50;39.50;;;;;27.31;45.65;99411.59;5087438;28;8834;-79
2023/08/23 06:42:48;;;;;;;;;53.00;43.25;;;;;27.73;45.03;99404.03;5088966;28;8890;-77
2023/08/23 06:45:17;;;;;;;;;54.75;45.00;;;;;28.09;43.97;99411.44;5088682;28;9008;-79
2023/08/23 06:47:46;;;;;;;;;51.50;43.00;;;;;28.44;43.63;99410.69;5088516;28;8842;-78
2023/08/23 06:50:16;;;;;;;;;53.50;44.25;;;;;28.68;43.05;99412.88;5069262;28;8966;-77
2023/08/23 06:52:44;;;;;;;;;46.75;40.00;;;;;28.88;41.85;99415.47;5088692;28;8873;-78
2023/08/23 06:55:19;;;;;;;;;52.50;43.25;;;;;29.15;41.52;99419.91;5088672;28;8834;-78
2023/08/23 06:57:48;;;;;;;;;49.00;40.75;;;;;29.41;40.75;99416.44;5088523;28;8959;-78
2023/08/23 07:00:21;;;;;;;;;50.25;42.50;;;;;29.60;40.17;99412.69;5021110;28;8853;-77
2023/08/23 07:02:50;;;;;;;;;45.25;38.75;;;;;29.78;39.17;99421.63;5088207;28;8865;-76
2023/08/23 07:05:19;;;;;;;;;45.75;38.50;;;;;29.99;37.44;99414.97;5070678;28;8919;-77
2023/08/23 07:07:47;;;;;;;;;40.50;35.75;;;;;30.10;37.45;99420.13;5074241;28;9568;-79
2023/08/23 07:10:18;;;;;;;;;47.00;38.25;;;;;30.25;37.13;99417.69;5091304;28;8868;-80
2023/08/23 07:12:56;;;;;;;;;44.33;38.00;;;;;30.41;37.44;99422.28;5088240;28;8854;-78
2023/08/23 07:15:26;;;;;;;;;44.50;37.50;;;;;30.48;36.34;99426.94;5088211;28;8854;-79
2023/08/23 07:17:55;;;;;;;;;48.75;40.75;;;;;30.61;36.13;99436.44;5088600;28;8850;-79
2023/08/23 07:20:24;;;;;;;;;47.00;39.00;;;;;30.71;36.40;99429.03;5037230;28;8959;-80
2023/08/23 07:22:52;;;;;;;;;43.00;37.25;;;;;30.87;36.40;99426.34;5088657;28;8869;-78
2023/08/23 07:25:23;;;;;;;;;48.75;40.75;;;;;30.94;36.81;99420.25;5075107;28;8842;-78
2023/08/23 07:27:51;;;;;;;;;50.50;42.25;;;;;30.90;36.98;99426.03;5089072;28;8858;-78
2023/08/23 07:30:20;;;;;;;;;49.75;42.00;;;;;31.02;36.71;99417.56;5088726;28;8870;-77
2023/08/23 07:32:49;;;;;;;;;51.50;43.00;;;;;31.01;36.87;99424.88;5089920;28;8849;-78
2023/08/23 07:35:18;;;;;;;;;49.00;41.25;;;;;31.16;36.39;99425.03;5054677;28;9571;-78
2023/08/23 07:37:47;;;;;;;;;47.50;39.25;;;;;31.26;36.37;99431.19;5071274;28;8858;-77
2023/08/23 07:40:17;;;;;;;;;51.25;41.00;;;;;31.40;36.13;99428.81;5088894;28;8841;-81
2023/08/23 07:42:47;;;;;;;;;50.25;42.50;;;;;31.41;35.73;99425.06;5070614;28;8850;-77
2023/08/23 07:45:16;;;;;;;;;48.25;41.00;;;;;31.53;35.94;99436.44;5088279;28;8838;-80
2023/08/23 07:47:44;;;;;;;;;54.00;44.75;;;;;31.68;36.05;99435.59;5087973;28;8875;-78
2023/08/23 07:50:14;;;;;;;;;45.25;37.25;;;;;31.71;35.80;99434.38;5088027;28;8862;-79
2023/08/23 07:52:43;;;;;;;;;55.00;44.25;;;;;31.63;35.87;99432.50;5088017;28;8946;-78
2023/08/23 07:55:12;;;;;;;;;51.50;43.25;;;;;31.75;35.93;99435.78;5087898;28;8850;-77
2023/08/23 07:57:40;;;;;;;;;51.75;42.75;;;;;31.65;36.58;99433.22;5087674;28;9015;-80
2023/08/23 08:00:12;;;;;;;;;53.00;44.00;;;;;31.76;36.51;99442.88;5087425;28;8985;-79
2023/08/23 08:02:41;;;;;;;;;55.33;45.33;;;;;31.87;36.84;99437.09;5039882;28;9000;-79
2023/08/23 08:05:11;;;;;;;;;55.00;45.00;;;;;31.95;36.91;99427.22;5074109;28;9008;-79
2023/08/23 08:07:39;;;;;;;;;53.75;44.25;;;;;32.03;36.16;99438.94;5092169;28;8997;-78
2023/08/23 08:10:11;;;;;;;;;54.67;44.33;;;;;32.01;36.25;99442.81;5091641;28;8867;-79
2023/08/23 08:12:40;;;;;;;;;52.33;43.00;;;;;32.14;36.12;99439.59;5091808;28;9838;-77
2023/08/23 08:15:11;;;;;;;;;53.33;44.00;;;;;32.07;36.47;99444.84;5092122;28;8967;-77
2023/08/23 08:17:40;;;;;;;;;53.67;45.00;;;;;31.90;36.48;99445.91;5090752;28;9014;-78
2023/08/23 08:20:12;;;;;;;;;51.00;42.67;;;;;31.86;36.23;99439.97;5072535;28;9146;-79
2023/08/23 08:22:41;;;;;;;;;56.33;46.00;;;;;31.34;37.23;99446.63;5090317;28;9064;-78
2023/08/23 08:25:11;;;;;;;;;55.00;44.33;;;;;31.72;37.05;99441.53;5054999;28;9083;-78
2023/08/23 08:27:42;;;;;;;;;54.33;44.00;;;;;31.80;37.04;99446.09;5090499;28;9719;-76
2023/08/23 08:30:13;;;;;;;;;51.33;42.67;;;;;31.99;36.69;99447.59;5089779;28;8925;-78
2023/08/23 08:32:41;;;;;;;;;53.67;43.67;;;;;32.06;36.53;99438.56;5089611;28;9037;-78
2023/08/23 08:35:11;;;;;;;;;54.67;45.00;;;;;32.08;35.73;99441.94;5089488;28;8959;-77
2023/08/23 08:37:40;;;;;;;;;50.75;42.75;;;;;31.97;36.03;99438.75;5071717;28;9770;-75
2023/08/23 08:40:10;;;;;;;;;54.67;45.67;;;;;32.09;36.34;99437.38;5090177;28;8842;-77
2023/08/23 08:42:39;;;;;;;;;49.00;41.25;;;;;32.23;35.88;99442.09;4997788;28;8942;-78
2023/08/23 08:45:09;;;;;;;;;48.25;40.75;;;;;32.33;35.54;99441.06;5046845;28;9024;-77
2023/08/23 08:47:39;;;;;;;;;46.75;40.00;;;;;32.41;35.24;99432.84;5050330;28;8871;-79
2023/08/23 08:50:09;;;;;;;;;48.25;41.00;;;;;32.34;34.92;99445.47;5033722;28;8978;-79
2023/08/23 08:52:43;;;;;;;;;47.50;40.00;;;;;32.38;34.09;99446.81;5066515;28;8894;-78
2023/08/23 08:55:12;;;;;;;;;45.00;37.75;;;;;32.37;33.37;99447.81;5050027;28;9063;-77
2023/08/23 08:57:42;;;;;;;;;48.00;39.25;;;;;32.51;33.00;99447.09;5068211;28;9016;-78
2023/08/23 09:00:12;;;;;;;;;45.75;39.00;;;;;32.58;33.11;99441.78;5069524;28;9049;-77
2023/08/23 09:02:45;;;;;;;;;48.00;38.25;;;;;32.64;33.42;99441.13;5048309;28;9637;-78
2023/08/23 09:05:16;;;;;;;;;43.25;37.25;;;;;32.63;33.02;99437.53;5046954;28;8906;-78
2023/08/23 09:07:45;;;;;;;;;43.00;36.75;;;;;32.72;32.99;99437.50;5046711;28;8854;-77
2023/08/23 09:10:15;;;;;;;;;44.00;38.00;;;;;32.67;32.59;99440.75;5046359;28;8866;-78
2023/08/23 09:12:43;;;;;;;;;41.75;35.50;;;;;32.75;32.39;99443.44;5045453;28;8870;-79
2023/08/23 09:15:12;;;;;;;;;43.25;36.00;;;;;32.78;32.53;99440.31;4996592;28;9781;-80
2023/08/23 09:17:42;;;;;;;;;43.67;37.00;;;;;32.71;32.39;99450.22;4955274;28;1223219;-77
2023/08/23 09:20:12;;;;;;;;;40.75;35.00;;;;;32.80;31.58;99442.88;5030811;28;8850;-76
2023/08/23 09:22:41;;;;;;;;;39.00;33.00;;;;;32.81;31.80;99447.31;5059552;28;8937;-78
2023/08/23 09:25:11;;;;;;;;;43.00;37.00;;;;;32.72;31.65;99438.34;5067509;28;8856;-77
2023/08/23 09:27:39;;;;;;;;;44.25;36.75;;;;;32.76;31.28;99441.53;5050503;28;8856;-77
2023/08/23 09:30:09;;;;;;;;;39.50;34.25;;;;;32.78;31.26;99436.78;5017312;28;9629;-77
2023/08/23 09:32:39;;;;;;;;;39.00;34.50;;;;;32.58;31.56;99433.59;5050144;28;8856;-77
2023/08/23 09:35:14;;;;;;;;;40.75;35.25;;;;;32.60;31.53;99437.88;5066658;28;8848;-78
2023/08/23 09:37:44;;;;;;;;;40.25;35.50;;;;;32.60;31.70;99437.00;5066937;28;8878;-78
2023/08/23 09:40:21;;;;;;;;;40.25;34.75;;;;;32.67;31.60;99434.47;5084579;28;8898;-78
2023/08/23 09:42:51;;;;;;;;;34.75;32.00;;;;;32.72;31.26;99438.34;5110028;28;8828;-77
2023/08/23 09:45:24;;;;;;;;;40.00;34.00;;;;;32.79;31.40;99435.72;5110434;28;8851;-79
2023/08/23 09:47:54;;;;;;;;;37.00;33.50;;;;;32.88;31.81;99439.25;5092949;28;8878;-78
2023/08/23 09:50:26;;;;;;;;;43.50;37.50;;;;;32.98;30.98;99429.84;5110132;28;8843;-80
2023/08/23 09:53:00;;;;;;;;;37.75;33.50;;;;;32.97;30.69;99428.13;5030178;28;8908;-79
2023/08/23 09:55:31;;;;;;;;;41.00;35.75;;;;;32.89;30.84;99435.53;5093766;28;9588;-78
2023/08/23 09:58:01;;;;;;;;;39.00;34.00;;;;;32.95;30.97;99424.72;5093281;28;8978;-79
2023/08/23 10:00:31;;;;;;;;;41.00;34.00;;;;;33.01;31.03;99420.44;5089860;28;8862;-79
2023/08/23 10:03:00;;;;;;;;;41.75;35.25;;;;;32.81;30.61;99426.38;5089378;28;8990;-78
2023/08/23 10:05:31;;;;;;;;;43.50;36.75;;;;;32.74;31.06;99427.28;5089584;28;8961;-78
2023/08/23 10:08:02;;;;;;;;;43.50;36.75;;;;;32.88;30.55;99417.47;5089528;28;9603;-77
2023/08/23 10:10:32;;;;;;;;;44.25;38.00;;;;;32.96;30.57;99422.84;5089677;28;8826;-79
2023/08/23 10:13:05;;;;;;;;;43.75;36.50;;;;;33.07;30.14;99416.16;5089463;28;8969;-80
2023/08/23 10:15:38;;;;;;;;;36.75;32.25;;;;;33.01;30.29;99418.56;5054047;28;9622;-78
2023/08/23 10:18:10;;;;;;;;;40.50;34.75;;;;;33.12;30.37;99406.44;5089007;28;9580;-77
2023/08/23 10:20:43;;;;;;;;;42.75;36.75;;;;;33.01;30.73;99413.09;5089148;28;8862;-77
2023/08/23 10:23:13;;;;;;;;;44.00;36.75;;;;;32.97;30.17;99397.34;5088830;28;8861;-76
2023/08/23 10:25:43;;;;;;;;;42.50;35.75;;;;;33.07;30.47;99405.25;5088700;28;8935;-79
2023/08/23 10:28:13;;;;;;;;;40.00;35.25;;;;;33.13;30.21;99401.81;5088714;28;8838;-75
2023/08/23 10:30:44;;;;;;;;;43.00;37.00;;;;;33.10;30.48;99402.22;5088469;28;8826;-78
2023/08/23 10:33:14;;;;;;;;;42.25;36.25;;;;;33.15;30.73;99406.06;5088397;28;8877;-78
2023/08/23 10:35:47;;;;;;;;;43.00;37.00;;;;;33.07;30.78;99402.53;5088979;28;8866;-78
2023/08/23 10:38:16;;;;;;;;;42.25;36.75;;;;;33.22;30.74;99401.59;5052757;28;8869;-79
2023/08/23 10:40:47;;;;;;;;;44.00;38.25;;;;;33.29;30.79;99403.56;5036104;28;9057;-76
2023/08/23 10:43:17;;;;;;;;;41.50;36.00;;;;;33.36;30.62;99404.53;5036051;28;8978;-77
2023/08/23 10:45:51;;;;;;;;;45.75;36.75;;;;;33.40;30.80;99398.53;5070645;28;8865;-77
2023/08/23 10:48:22;;;;;;;;;44.00;37.00;;;;;33.30;30.62;99397.94;5088522;28;8854;-78
2023/08/23 10:50:54;;;;;;;;;44.75;36.75;;;;;33.35;30.57;99392.78;5089362;28;8868;-78
2023/08/23 10:53:24;;;;;;;;;44.25;38.25;;;;;33.43;30.28;99389.13;5089352;28;8861;-77
2023/08/23 10:56:01;;;;;;;;;43.75;36.00;;;;;33.53;29.49;99377.97;5090079;28;8872;-78
2023/08/23 10:58:33;;;;;;;;;36.75;33.25;;;;;33.58;29.71;99373.69;5089325;28;8876;-77
2023/08/23 11:01:03;;;;;;;;;42.25;36.50;;;;;33.60;29.22;99382.53;5088677;28;8873;-78
2023/08/23 11:03:33;;;;;;;;;38.25;34.00;;;;;33.54;28.63;99380.53;5088269;28;8822;-79
2023/08/23 11:06:03;;;;;;;;;37.50;32.50;;;;;33.74;28.31;99378.09;5088534;28;8911;-78
2023/08/23 11:08:31;;;;;;;;;35.50;32.50;;;;;33.83;28.12;99370.69;5069786;28;8884;-78
2023/08/23 11:11:00;;;;;;;;;37.75;33.00;;;;;33.96;27.69;99379.06;5070414;28;8880;-77
2023/08/23 11:13:29;;;;;;;;;35.50;32.50;;;;;34.06;27.04;99378.78;5070113;28;8938;-79
2023/08/23 11:15:58;;;;;;;;;34.50;31.75;;;;;34.19;27.08;99370.78;5088313;28;8861;-77
2023/08/23 11:18:27;;;;;;;;;39.50;34.00;;;;;34.21;26.73;99359.69;5088755;28;8846;-77
2023/08/23 11:20:56;;;;;;;;;34.75;32.00;;;;;34.46;27.39;99373.00;5088671;28;8884;-77
2023/08/23 11:23:26;;;;;;;;;39.75;34.25;;;;;34.59;27.01;99367.69;5088776;28;8838;-80
2023/08/23 11:25:56;;;;;;;;;37.50;32.75;;;;;34.71;27.24;99359.84;5088539;28;8922;-78
2023/08/23 11:28:24;;;;;;;;;37.75;33.75;;;;;34.90;26.00;99369.28;5088533;28;8950;-80
2023/08/23 11:30:53;;;;;;;;;34.75;31.50;;;;;35.00;25.76;99360.75;5087115;28;9619;-79
2023/08/23 11:33:22;;;;;;;;;34.50;32.25;;;;;35.17;25.02;99358.59;5020137;28;8846;-77
2023/08/23 11:35:51;;;;;;;;;35.00;31.50;;;;;35.19;24.86;99351.88;5088181;28;9656;-78
2023/08/23 11:38:29;;;;;;;;;38.50;34.00;;;;;35.15;25.36;99345.13;5092046;28;8854;-77